createdAt,value
2016-05-16T00:00:04.631Z,0
2016-05-16T00:01:04.634Z,0
2016-05-16T00:02:04.496Z,0
2016-05-16T00:03:04.514Z,0
2016-05-16T00:04:04.689Z,0
2016-05-16T00:05:04.581Z,0
2016-05-16T00:06:04.742Z,0
2016-05-16T00:07:04.759Z,0
2016-05-16T00:08:04.762Z,0
2016-05-16T00:09:04.795Z,0
2016-05-16T00:10:04.814Z,0
2016-05-16T00:11:04.847Z,0
2016-05-16T00:12:04.694Z,0
2016-05-16T00:13:04.870Z,0
2016-05-16T00:14:04.888Z,0
2016-05-16T00:15:04.922Z,0
2016-05-16T00:16:04.939Z,0
2016-05-16T00:17:04.958Z,0
2016-05-16T00:18:04.976Z,0
2016-05-16T00:19:04.979Z,0
2016-05-16T00:20:04.575Z,0
2016-05-16T00:21:04.875Z,0
2016-05-16T00:22:05.049Z,0
2016-05-16T00:23:04.912Z,0
2016-05-16T00:24:05.118Z,0
2016-05-16T00:25:04.964Z,0
2016-05-16T00:26:05.123Z,0
2016-05-16T00:27:05.141Z,0
2016-05-16T00:28:05.160Z,0
2016-05-16T00:29:05.209Z,0
2016-05-16T00:30:05.212Z,0
2016-05-16T00:31:05.229Z,0
2016-05-16T00:32:05.249Z,0
2016-05-16T00:33:05.267Z,0
2016-05-16T00:34:05.301Z,0
2016-05-16T00:35:05.178Z,0
2016-05-16T00:36:05.337Z,0
2016-05-16T00:37:05.356Z,0
2016-05-16T00:38:05.373Z,0
2016-05-16T00:39:05.392Z,0
2016-05-16T00:40:05.411Z,0
2016-05-16T00:41:05.445Z,0
2016-05-16T00:42:05.306Z,0
2016-05-16T00:43:05.481Z,0
2016-05-16T00:44:05.514Z,0
2016-05-16T00:45:05.517Z,0
2016-05-16T00:46:05.552Z,0
2016-05-16T00:47:05.570Z,0
2016-05-16T00:48:05.588Z,0
2016-05-16T00:49:05.466Z,0
2016-05-16T00:50:06.047Z,0
2016-05-16T00:51:05.627Z,0
2016-05-16T00:52:05.646Z,0
2016-05-16T00:53:05.680Z,0
2016-05-16T00:54:05.699Z,0
2016-05-16T00:55:05.716Z,0
2016-05-16T00:56:05.735Z,0
2016-05-16T00:57:05.738Z,0
2016-05-16T00:58:05.772Z,0
2016-05-16T00:59:05.648Z,0
2016-05-16T01:00:05.807Z,0
2016-05-16T01:01:05.826Z,0
2016-05-16T01:02:05.845Z,0
2016-05-16T01:03:05.863Z,0
2016-05-16T01:04:05.912Z,0
2016-05-16T01:05:06.431Z,0
2016-05-16T01:06:05.777Z,0
2016-05-16T01:07:05.952Z,0
2016-05-16T01:08:05.970Z,0
2016-05-16T01:09:05.832Z,0
2016-05-16T01:10:06.023Z,0
2016-05-16T01:11:06.041Z,0
2016-05-16T01:12:06.044Z,0
2016-05-16T01:13:06.062Z,0
2016-05-16T01:14:05.922Z,0
2016-05-16T01:15:05.956Z,0
2016-05-16T01:16:06.116Z,0
2016-05-16T01:17:05.991Z,0
2016-05-16T01:18:06.169Z,0
2016-05-16T01:19:06.028Z,0
2016-05-16T01:20:06.063Z,0
2016-05-16T01:21:06.066Z,0
2016-05-16T01:22:06.241Z,0
2016-05-16T01:23:06.101Z,0
2016-05-16T01:24:05.980Z,0
2016-05-16T01:25:06.313Z,0
2016-05-16T01:26:06.331Z,0
2016-05-16T01:27:06.350Z,0
2016-05-16T01:28:06.367Z,0
2016-05-16T01:29:06.386Z,0
2016-05-16T01:30:06.246Z,0
2016-05-16T01:31:06.263Z,0
2016-05-16T01:32:06.282Z,0
2016-05-16T01:33:06.316Z,0
2016-05-16T01:34:06.493Z,0
2016-05-16T01:35:06.511Z,0
2016-05-16T01:36:06.370Z,0
2016-05-16T01:37:06.533Z,0
2016-05-16T01:38:06.393Z,0
2016-05-16T01:39:06.584Z,0
2016-05-16T01:40:06.604Z,0
2016-05-16T01:41:06.622Z,0
2016-05-16T01:42:06.639Z,0
2016-05-16T01:43:06.499Z,0
2016-05-16T01:44:06.674Z,0
2016-05-16T01:45:06.536Z,0
2016-05-16T01:46:06.710Z,0
2016-05-16T01:47:06.729Z,0
2016-05-16T01:48:06.765Z,0
2016-05-16T01:49:06.765Z,0
2016-05-16T01:50:07.083Z,0
2016-05-16T01:51:06.817Z,0
2016-05-16T01:52:06.866Z,0
2016-05-16T01:53:06.941Z,0
2016-05-16T01:54:07.000Z,0
2016-05-16T01:55:06.886Z,0
2016-05-16T01:56:07.102Z,0
2016-05-16T01:57:07.140Z,0
2016-05-16T01:58:07.188Z,0
2016-05-16T01:59:07.066Z,0
2016-05-16T02:00:07.239Z,0
2016-05-16T02:01:07.131Z,0
2016-05-16T02:02:07.313Z,0
2016-05-16T02:03:07.338Z,0
2016-05-16T02:04:07.361Z,0
2016-05-16T02:05:07.244Z,0
2016-05-16T02:06:07.346Z,0
2016-05-16T02:07:07.429Z,0
2016-05-16T02:08:07.450Z,0
2016-05-16T02:09:07.485Z,0
2016-05-16T02:10:07.365Z,0
2016-05-16T02:11:07.511Z,0
2016-05-16T02:12:07.546Z,0
2016-05-16T02:13:07.549Z,0
2016-05-16T02:14:07.427Z,0
2016-05-16T02:15:07.618Z,0
2016-05-16T02:16:07.653Z,0
2016-05-16T02:17:07.640Z,0
2016-05-16T02:18:07.658Z,0
2016-05-16T02:19:07.708Z,0
2016-05-16T02:20:08.087Z,0
2016-05-16T02:21:07.728Z,0
2016-05-16T02:22:07.591Z,0
2016-05-16T02:23:07.453Z,0
2016-05-16T02:24:07.767Z,0
2016-05-16T02:25:07.803Z,0
2016-05-16T02:26:07.820Z,0
2016-05-16T02:27:07.839Z,0
2016-05-16T02:28:07.856Z,0
2016-05-16T02:29:07.875Z,0
2016-05-16T02:30:07.956Z,0
2016-05-16T02:31:07.928Z,0
2016-05-16T02:32:07.789Z,0
2016-05-16T02:33:07.792Z,0
2016-05-16T02:34:07.810Z,0
2016-05-16T02:35:09.566Z,0
2016-05-16T02:36:08.066Z,0
2016-05-16T02:37:08.100Z,0
2016-05-16T02:38:07.899Z,0
2016-05-16T02:39:07.902Z,0
2016-05-16T02:40:08.077Z,0
2016-05-16T02:41:08.111Z,0
2016-05-16T02:42:08.129Z,0
2016-05-16T02:43:08.146Z,0
2016-05-16T02:44:08.165Z,0
2016-05-16T02:45:08.027Z,0
2016-05-16T02:46:08.046Z,0
2016-05-16T02:47:08.220Z,0
2016-05-16T02:48:08.240Z,0
2016-05-16T02:49:08.257Z,0
2016-05-16T02:50:08.684Z,0
2016-05-16T02:51:08.293Z,0
2016-05-16T02:52:08.312Z,0
2016-05-16T02:53:08.189Z,0
2016-05-16T02:54:08.381Z,0
2016-05-16T02:55:08.383Z,0
2016-05-16T02:56:08.401Z,4
2016-05-16T02:57:08.419Z,4
2016-05-16T02:58:08.281Z,4
2016-05-16T02:59:08.456Z,0
2016-05-16T03:00:08.662Z,4
2016-05-16T03:01:08.492Z,4
2016-05-16T03:02:08.511Z,4
2016-05-16T03:03:08.389Z,4
2016-05-16T03:04:08.547Z,4
2016-05-16T03:05:08.472Z,8
2016-05-16T03:06:08.443Z,4
2016-05-16T03:07:08.602Z,8
2016-05-16T03:08:08.621Z,8
2016-05-16T03:09:08.499Z,4
2016-05-16T03:10:08.673Z,8
2016-05-16T03:11:08.691Z,8
2016-05-16T03:12:08.710Z,12
2016-05-16T03:13:08.572Z,12
2016-05-16T03:14:08.746Z,12
2016-05-16T03:15:08.765Z,12
2016-05-16T03:16:08.798Z,12
2016-05-16T03:17:08.801Z,16
2016-05-16T03:18:08.820Z,16
2016-05-16T03:19:08.838Z,20
2016-05-16T03:20:08.871Z,16
2016-05-16T03:21:08.874Z,20
2016-05-16T03:22:08.909Z,24
2016-05-16T03:23:08.926Z,24
2016-05-16T03:24:08.632Z,24
2016-05-16T03:25:08.948Z,24
2016-05-16T03:26:08.826Z,32
2016-05-16T03:27:09.000Z,32
2016-05-16T03:28:08.862Z,32
2016-05-16T03:29:08.895Z,32
2016-05-16T03:30:08.898Z,40
2016-05-16T03:31:08.917Z,40
2016-05-16T03:32:08.936Z,44
2016-05-16T03:33:09.141Z,44
2016-05-16T03:34:09.425Z,44
2016-05-16T03:35:09.366Z,48
2016-05-16T03:36:09.180Z,48
2016-05-16T03:37:09.214Z,52
2016-05-16T03:38:09.217Z,56
2016-05-16T03:39:09.235Z,60
2016-05-16T03:40:09.254Z,56
2016-05-16T03:41:09.272Z,60
2016-05-16T03:42:09.134Z,64
2016-05-16T03:43:09.293Z,68
2016-05-16T03:44:09.015Z,72
2016-05-16T03:45:09.346Z,72
2016-05-16T03:46:09.363Z,76
2016-05-16T03:47:09.382Z,80
2016-05-16T03:48:09.401Z,80
2016-05-16T03:49:09.418Z,88
2016-05-16T03:50:09.452Z,88
2016-05-16T03:51:09.315Z,92
2016-05-16T03:52:09.489Z,92
2016-05-16T03:53:09.507Z,96
2016-05-16T03:54:09.526Z,100
2016-05-16T03:55:09.544Z,100
2016-05-16T03:56:09.562Z,104
2016-05-16T03:57:09.581Z,104
2016-05-16T03:58:09.474Z,112
2016-05-16T03:59:09.617Z,116
2016-05-16T04:00:09.636Z,116
2016-05-16T04:01:09.653Z,116
2016-05-16T04:02:09.516Z,124
2016-05-16T04:03:09.706Z,124
2016-05-16T04:04:09.725Z,124
2016-05-16T04:05:09.852Z,132
2016-05-16T04:06:09.589Z,132
2016-05-16T04:07:09.452Z,132
2016-05-16T04:08:09.814Z,136
2016-05-16T04:09:09.644Z,136
2016-05-16T04:10:09.835Z,144
2016-05-16T04:11:09.696Z,144
2016-05-16T04:12:09.871Z,148
2016-05-16T04:13:09.874Z,152
2016-05-16T04:14:09.907Z,152
2016-05-16T04:15:09.926Z,160
2016-05-16T04:16:09.944Z,164
2016-05-16T04:17:09.947Z,160
2016-05-16T04:18:09.981Z,164
2016-05-16T04:19:09.843Z,168
2016-05-16T04:20:09.720Z,176
2016-05-16T04:21:10.035Z,180
2016-05-16T04:22:09.898Z,196
2016-05-16T04:23:09.932Z,224
2016-05-16T04:24:10.075Z,236
2016-05-16T04:25:10.125Z,224
2016-05-16T04:26:10.143Z,228
2016-05-16T04:27:10.005Z,244
2016-05-16T04:28:10.195Z,264
2016-05-16T04:29:10.198Z,272
2016-05-16T04:30:10.217Z,272
2016-05-16T04:31:10.062Z,280
2016-05-16T04:32:10.253Z,304
2016-05-16T04:33:10.271Z,324
2016-05-16T04:34:10.289Z,328
2016-05-16T04:35:10.777Z,336
2016-05-16T04:36:10.311Z,336
2016-05-16T04:37:10.344Z,312
2016-05-16T04:38:10.206Z,272
2016-05-16T04:39:10.381Z,232
2016-05-16T04:40:10.400Z,224
2016-05-16T04:41:10.418Z,224
2016-05-16T04:42:10.717Z,244
2016-05-16T04:43:10.455Z,280
2016-05-16T04:44:10.488Z,292
2016-05-16T04:45:10.335Z,312
2016-05-16T04:46:10.352Z,316
2016-05-16T04:47:10.527Z,288
2016-05-16T04:48:10.562Z,280
2016-05-16T04:49:10.565Z,296
2016-05-16T04:50:10.676Z,304
2016-05-16T04:51:10.601Z,300
2016-05-16T04:52:10.618Z,304
2016-05-16T04:53:10.654Z,304
2016-05-16T04:54:10.671Z,300
2016-05-16T04:55:10.518Z,284
2016-05-16T04:56:10.708Z,276
2016-05-16T04:57:10.742Z,280
2016-05-16T04:58:10.620Z,280
2016-05-16T04:59:10.762Z,280
2016-05-16T05:00:10.781Z,292
2016-05-16T05:01:10.800Z,312
2016-05-16T05:02:10.506Z,340
2016-05-16T05:03:10.680Z,408
2016-05-16T05:04:10.855Z,552
2016-05-16T05:05:11.388Z,672
2016-05-16T05:06:10.750Z,772
2016-05-16T05:07:10.909Z,832
2016-05-16T05:08:10.928Z,808
2016-05-16T05:09:10.961Z,764
2016-05-16T05:10:10.808Z,728
2016-05-16T05:11:10.999Z,700
2016-05-16T05:12:10.860Z,600
2016-05-16T05:13:11.019Z,488
2016-05-16T05:14:10.897Z,444
2016-05-16T05:15:11.072Z,428
2016-05-16T05:16:11.091Z,404
2016-05-16T05:17:11.108Z,468
2016-05-16T05:18:10.985Z,616
2016-05-16T05:19:11.145Z,600
2016-05-16T05:20:11.632Z,544
2016-05-16T05:21:11.182Z,500
2016-05-16T05:22:11.043Z,584
2016-05-16T05:23:11.218Z,740
2016-05-16T05:24:11.236Z,604
2016-05-16T05:25:11.255Z,720
2016-05-16T05:26:11.273Z,780
2016-05-16T05:27:11.292Z,592
2016-05-16T05:28:11.153Z,776
2016-05-16T05:29:11.328Z,1060
2016-05-16T05:30:11.362Z,940
2016-05-16T05:31:11.208Z,896
2016-05-16T05:32:11.383Z,952
2016-05-16T05:33:11.261Z,908
2016-05-16T05:34:11.420Z,804
2016-05-16T05:35:11.626Z,872
2016-05-16T05:36:11.456Z,848
2016-05-16T05:37:11.333Z,776
2016-05-16T05:38:11.509Z,692
2016-05-16T05:39:11.527Z,756
2016-05-16T05:40:11.373Z,748
2016-05-16T05:41:11.579Z,748
2016-05-16T05:42:11.582Z,940
2016-05-16T05:43:11.599Z,1312
2016-05-16T05:44:11.478Z,1272
2016-05-16T05:45:11.496Z,1388
2016-05-16T05:46:11.671Z,1500
2016-05-16T05:47:11.516Z,1408
2016-05-16T05:48:11.708Z,1232
2016-05-16T05:49:11.709Z,1080
2016-05-16T05:50:12.041Z,1092
2016-05-16T05:51:11.606Z,1092
2016-05-16T05:52:11.624Z,960
2016-05-16T05:53:11.642Z,868
2016-05-16T05:54:11.818Z,856
2016-05-16T05:55:11.835Z,896
2016-05-16T05:56:11.854Z,1000
2016-05-16T05:57:11.904Z,988
2016-05-16T05:58:11.906Z,1028
2016-05-16T05:59:11.909Z,1084
2016-05-16T06:00:11.926Z,1044
2016-05-16T06:01:11.945Z,996
2016-05-16T06:02:11.823Z,1004
2016-05-16T06:03:12.014Z,988
2016-05-16T06:04:11.859Z,1016
2016-05-16T06:05:12.097Z,1004
2016-05-16T06:06:12.053Z,868
2016-05-16T06:07:11.914Z,796
2016-05-16T06:08:12.089Z,796
2016-05-16T06:09:12.123Z,772
2016-05-16T06:10:12.125Z,800
2016-05-16T06:11:12.144Z,936
2016-05-16T06:12:12.005Z,948
2016-05-16T06:13:12.197Z,900
2016-05-16T06:14:12.214Z,788
2016-05-16T06:15:12.233Z,768
2016-05-16T06:16:12.251Z,872
2016-05-16T06:17:12.113Z,828
2016-05-16T06:18:12.287Z,1088
2016-05-16T06:19:12.149Z,1168
2016-05-16T06:20:12.372Z,1048
2016-05-16T06:21:12.358Z,1128
2016-05-16T06:22:12.205Z,1200
2016-05-16T06:23:12.238Z,1196
2016-05-16T06:24:12.413Z,1024
2016-05-16T06:25:12.416Z,1168
2016-05-16T06:26:12.293Z,1596
2016-05-16T06:27:12.453Z,1216
2016-05-16T06:28:12.331Z,940
2016-05-16T06:29:12.504Z,1008
2016-05-16T06:30:12.382Z,928
2016-05-16T06:31:12.385Z,944
2016-05-16T06:32:12.559Z,1276
2016-05-16T06:33:12.579Z,1012
2016-05-16T06:34:12.439Z,1324
2016-05-16T06:35:12.834Z,1084
2016-05-16T06:36:12.649Z,1052
2016-05-16T06:37:12.511Z,952
2016-05-16T06:38:12.686Z,928
2016-05-16T06:39:12.703Z,776
2016-05-16T06:40:12.722Z,716
2016-05-16T06:41:12.741Z,828
2016-05-16T06:42:12.775Z,900
2016-05-16T06:43:12.777Z,604
2016-05-16T06:44:12.811Z,500
2016-05-16T06:45:12.672Z,524
2016-05-16T06:46:12.847Z,644
2016-05-16T06:47:12.866Z,828
2016-05-16T06:48:12.728Z,1004
2016-05-16T06:49:12.903Z,928
2016-05-16T06:50:13.077Z,1316
2016-05-16T06:51:12.939Z,1332
2016-05-16T06:52:12.974Z,2012
2016-05-16T06:53:12.991Z,2544
2016-05-16T06:54:12.854Z,1672
2016-05-16T06:55:13.028Z,1340
2016-05-16T06:56:12.890Z,1368
2016-05-16T06:57:12.909Z,1196
2016-05-16T06:58:13.083Z,604
2016-05-16T06:59:13.117Z,552
2016-05-16T07:00:13.135Z,512
2016-05-16T07:01:13.153Z,472
2016-05-16T07:02:13.734Z,632
2016-05-16T07:03:13.190Z,664
2016-05-16T07:04:13.052Z,572
2016-05-16T07:05:13.227Z,588
2016-05-16T07:06:13.089Z,668
2016-05-16T07:07:13.278Z,716
2016-05-16T07:08:13.126Z,824
2016-05-16T07:09:13.300Z,732
2016-05-16T07:10:13.178Z,592
2016-05-16T07:11:13.367Z,596
2016-05-16T07:12:13.386Z,604
2016-05-16T07:13:13.264Z,648
2016-05-16T07:14:13.283Z,912
2016-05-16T07:15:13.441Z,688
2016-05-16T07:16:13.460Z,760
2016-05-16T07:17:13.556Z,688
2016-05-16T07:18:13.355Z,632
2016-05-16T07:19:13.514Z,692
2016-05-16T07:20:13.235Z,800
2016-05-16T07:21:13.566Z,964
2016-05-16T07:22:13.288Z,1280
2016-05-16T07:23:13.604Z,1668
2016-05-16T07:24:13.622Z,2224
2016-05-16T07:25:13.640Z,2728
2016-05-16T07:26:13.674Z,1892
2016-05-16T07:27:13.692Z,2160
2016-05-16T07:28:13.726Z,2116
2016-05-16T07:29:13.729Z,1704
2016-05-16T07:30:13.762Z,1152
2016-05-16T07:31:13.610Z,824
2016-05-16T07:32:13.799Z,784
2016-05-16T07:33:13.489Z,956
2016-05-16T07:34:13.836Z,1092
2016-05-16T07:35:14.479Z,1392
2016-05-16T07:36:13.873Z,1248
2016-05-16T07:37:13.750Z,868
2016-05-16T07:38:13.769Z,760
2016-05-16T07:39:13.928Z,716
2016-05-16T07:40:13.962Z,552
2016-05-16T07:41:14.012Z,440
2016-05-16T07:42:13.997Z,892
2016-05-16T07:43:14.017Z,1252
2016-05-16T07:44:14.035Z,992
2016-05-16T07:45:13.913Z,736
2016-05-16T07:46:14.071Z,576
2016-05-16T07:47:14.089Z,604
2016-05-16T07:48:14.232Z,584
2016-05-16T07:49:13.969Z,544
2016-05-16T07:50:14.177Z,572
2016-05-16T07:51:14.397Z,644
2016-05-16T07:52:14.197Z,700
2016-05-16T07:53:14.215Z,816
2016-05-16T07:54:14.233Z,744
2016-05-16T07:55:14.252Z,692
2016-05-16T07:56:14.270Z,776
2016-05-16T07:57:14.304Z,1052
2016-05-16T07:58:14.322Z,1624
2016-05-16T07:59:14.357Z,2480
2016-05-16T08:00:14.360Z,2612
2016-05-16T08:01:14.237Z,1812
2016-05-16T08:02:14.240Z,1340
2016-05-16T08:03:14.414Z,928
2016-05-16T08:04:14.276Z,1048
2016-05-16T08:05:14.325Z,1576
2016-05-16T08:06:14.484Z,2420
2016-05-16T08:07:14.362Z,2124
2016-05-16T08:08:14.365Z,2408
2016-05-16T08:09:14.539Z,2148
2016-05-16T08:10:14.417Z,1960
2016-05-16T08:11:14.576Z,1664
2016-05-16T08:12:14.610Z,1240
2016-05-16T08:13:14.628Z,1360
2016-05-16T08:14:14.661Z,1396
2016-05-16T08:15:14.525Z,1348
2016-05-16T08:16:14.700Z,1140
2016-05-16T08:17:14.717Z,1308
2016-05-16T08:18:14.580Z,1636
2016-05-16T08:19:14.754Z,1548
2016-05-16T08:20:14.616Z,1108
2016-05-16T08:21:29.871Z,976
2016-05-16T08:22:14.668Z,1120
2016-05-16T08:23:24.564Z,1344
2016-05-16T08:24:14.861Z,1620
2016-05-16T08:25:14.567Z,1988
2016-05-16T08:26:14.741Z,2564
2016-05-16T08:27:14.776Z,2712
2016-05-16T08:28:14.949Z,2488
2016-05-16T08:29:14.812Z,2496
2016-05-16T08:30:14.986Z,2148
2016-05-16T08:31:15.004Z,1604
2016-05-16T08:32:14.868Z,1012
2016-05-16T08:33:14.901Z,796
2016-05-16T08:34:14.920Z,832
2016-05-16T08:35:15.093Z,836
2016-05-16T08:36:15.253Z,968
2016-05-16T08:37:14.834Z,876
2016-05-16T08:38:15.008Z,708
2016-05-16T08:39:15.011Z,848
2016-05-16T08:40:15.201Z,1220
2016-05-16T08:41:15.219Z,1552
2016-05-16T08:42:15.253Z,1892
2016-05-16T08:43:15.100Z,2136
2016-05-16T08:44:15.289Z,2312
2016-05-16T08:45:15.309Z,2384
2016-05-16T08:46:15.341Z,2432
2016-05-16T08:47:15.360Z,2424
2016-05-16T08:48:15.379Z,2480
2016-05-16T08:49:15.397Z,2504
2016-05-16T08:50:15.416Z,2420
2016-05-16T08:51:15.605Z,2324
2016-05-16T08:52:15.468Z,2164
2016-05-16T08:53:15.517Z,1920
2016-05-16T08:54:15.504Z,1592
2016-05-16T08:55:15.522Z,1360
2016-05-16T08:56:15.572Z,1348
2016-05-16T08:57:15.575Z,1420
2016-05-16T08:58:15.437Z,1528
2016-05-16T08:59:15.612Z,1760
2016-05-16T09:00:15.489Z,1844
2016-05-16T09:01:15.663Z,1852
2016-05-16T09:02:15.369Z,2052
2016-05-16T09:03:15.700Z,1800
2016-05-16T09:04:15.563Z,1580
2016-05-16T09:05:16.128Z,1640
2016-05-16T09:06:16.287Z,1332
2016-05-16T09:07:15.789Z,1084
2016-05-16T09:08:15.823Z,1316
2016-05-16T09:09:15.842Z,1172
2016-05-16T09:10:15.859Z,1076
2016-05-16T09:11:15.909Z,1080
2016-05-16T09:12:15.912Z,1220
2016-05-16T09:13:15.931Z,1744
2016-05-16T09:14:15.964Z,2472
2016-05-16T09:15:15.983Z,2756
2016-05-16T09:16:16.000Z,3052
2016-05-16T09:17:16.035Z,3344
2016-05-16T09:18:15.880Z,2528
2016-05-16T09:19:16.055Z,2052
2016-05-16T09:20:15.919Z,1548
2016-05-16T09:21:16.467Z,1508
2016-05-16T09:22:15.970Z,1128
2016-05-16T09:23:16.144Z,1044
2016-05-16T09:24:16.163Z,1128
2016-05-16T09:25:16.182Z,860
2016-05-16T09:26:16.060Z,776
2016-05-16T09:27:16.233Z,880
2016-05-16T09:28:16.252Z,932
2016-05-16T09:29:16.286Z,856
2016-05-16T09:30:16.320Z,692
2016-05-16T09:31:16.010Z,588
2016-05-16T09:32:16.356Z,700
2016-05-16T09:33:16.374Z,892
2016-05-16T09:34:16.393Z,828
2016-05-16T09:35:16.630Z,504
2016-05-16T09:36:16.602Z,264
2016-05-16T09:37:16.292Z,340
2016-05-16T09:38:16.170Z,348
2016-05-16T09:39:16.359Z,380
2016-05-16T09:40:16.518Z,536
2016-05-16T09:41:16.553Z,660
2016-05-16T09:42:16.570Z,712
2016-05-16T09:43:16.589Z,804
2016-05-16T09:44:16.467Z,856
2016-05-16T09:45:16.657Z,888
2016-05-16T09:46:16.503Z,884
2016-05-16T09:47:16.694Z,932
2016-05-16T09:48:16.711Z,1000
2016-05-16T09:49:16.589Z,1064
2016-05-16T09:50:17.358Z,1156
2016-05-16T09:51:16.735Z,1332
2016-05-16T09:52:16.801Z,1604
2016-05-16T09:53:16.507Z,1876
2016-05-16T09:54:16.838Z,2012
2016-05-16T09:55:16.871Z,1960
2016-05-16T09:56:16.890Z,1760
2016-05-16T09:57:16.908Z,1496
2016-05-16T09:58:16.927Z,1464
2016-05-16T09:59:16.820Z,1496
2016-05-16T10:00:16.994Z,1560
2016-05-16T10:01:16.997Z,1668
2016-05-16T10:02:17.031Z,1824
2016-05-16T10:03:17.065Z,2016
2016-05-16T10:04:17.114Z,2224
2016-05-16T10:05:17.085Z,2468
2016-05-16T10:06:17.604Z,2576
2016-05-16T10:07:16.982Z,2728
2016-05-16T10:08:17.157Z,2984
2016-05-16T10:09:17.190Z,3236
2016-05-16T10:10:17.209Z,2780
2016-05-16T10:11:17.226Z,2080
2016-05-16T10:12:17.089Z,1908
2016-05-16T10:13:17.264Z,1968
2016-05-16T10:14:17.314Z,1824
2016-05-16T10:15:17.442Z,1548
2016-05-16T10:16:17.334Z,1328
2016-05-16T10:17:17.368Z,1200
2016-05-16T10:18:31.467Z,1116
2016-05-16T10:19:17.248Z,1108
2016-05-16T10:20:17.438Z,1152
2016-05-16T10:21:17.489Z,1140
2016-05-16T10:22:17.475Z,1152
2016-05-16T10:23:17.525Z,1116
2016-05-16T10:24:17.356Z,1008
2016-05-16T10:25:17.530Z,812
2016-05-16T10:26:17.408Z,724
2016-05-16T10:27:17.269Z,852
2016-05-16T10:28:17.601Z,804
2016-05-16T10:29:17.635Z,760
2016-05-16T10:30:17.497Z,800
2016-05-16T10:31:17.672Z,808
2016-05-16T10:32:17.690Z,772
2016-05-16T10:33:17.724Z,772
2016-05-16T10:34:17.742Z,724
2016-05-16T10:35:17.916Z,760
2016-05-16T10:36:17.668Z,856
2016-05-16T10:37:17.657Z,920
2016-05-16T10:38:17.846Z,988
2016-05-16T10:39:17.848Z,1204
2016-05-16T10:40:17.884Z,1372
2016-05-16T10:41:17.902Z,1460
2016-05-16T10:42:17.935Z,1504
2016-05-16T10:43:17.954Z,1524
2016-05-16T10:44:17.815Z,1640
2016-05-16T10:45:17.990Z,1636
2016-05-16T10:46:18.024Z,1628
2016-05-16T10:47:18.042Z,1920
2016-05-16T10:48:18.045Z,2120
2016-05-16T10:49:18.079Z,2224
2016-05-16T10:50:18.097Z,2356
2016-05-16T10:51:18.538Z,2436
2016-05-16T10:52:17.977Z,2376
2016-05-16T10:53:18.012Z,2404
2016-05-16T10:54:18.046Z,2520
2016-05-16T10:55:18.205Z,2648
2016-05-16T10:56:18.255Z,2700
2016-05-16T10:57:18.272Z,2556
2016-05-16T10:58:18.331Z,2248
2016-05-16T10:59:18.240Z,2072
2016-05-16T11:00:18.508Z,2128
2016-05-16T11:01:18.542Z,2308
2016-05-16T11:02:18.607Z,2272
2016-05-16T11:03:18.647Z,2168
2016-05-16T11:04:18.682Z,2508
2016-05-16T11:05:18.561Z,2884
2016-05-16T11:06:20.018Z,3440
2016-05-16T11:07:18.804Z,4032
2016-05-16T11:08:18.828Z,4476
2016-05-16T11:09:18.869Z,4576
2016-05-16T11:10:18.892Z,4612
2016-05-16T11:11:18.776Z,4504
2016-05-16T11:12:18.957Z,4388
2016-05-16T11:13:18.978Z,4060
2016-05-16T11:14:18.997Z,3916
2016-05-16T11:15:19.019Z,3896
2016-05-16T11:16:18.882Z,4096
2016-05-16T11:17:18.920Z,4348
2016-05-16T11:18:19.095Z,3472
2016-05-16T11:19:19.129Z,4120
2016-05-16T11:20:19.321Z,5048
2016-05-16T11:21:19.230Z,4808
2016-05-16T11:22:19.187Z,4680
2016-05-16T11:23:19.222Z,3564
2016-05-16T11:24:19.240Z,3428
2016-05-16T11:25:18.947Z,3476
2016-05-16T11:26:19.136Z,3544
2016-05-16T11:27:19.295Z,3580
2016-05-16T11:28:19.330Z,2916
2016-05-16T11:29:19.192Z,3492
2016-05-16T11:30:19.382Z,1756
2016-05-16T11:31:19.401Z,1804
2016-05-16T11:32:19.419Z,2476
2016-05-16T11:33:19.281Z,1032
2016-05-16T11:34:19.300Z,1116
2016-05-16T11:35:19.489Z,1912
2016-05-16T11:36:19.555Z,1556
2016-05-16T11:37:19.557Z,1860
2016-05-16T11:38:19.404Z,2132
2016-05-16T11:39:19.422Z,1876
2016-05-16T11:40:19.613Z,1616
2016-05-16T11:41:19.630Z,1448
2016-05-16T11:42:19.665Z,1552
2016-05-16T11:43:19.682Z,2020
2016-05-16T11:44:19.545Z,4180
2016-05-16T11:45:19.735Z,4288
2016-05-16T11:46:19.753Z,3248
2016-05-16T11:47:19.772Z,1160
2016-05-16T11:48:19.806Z,1332
2016-05-16T11:49:19.855Z,1560
2016-05-16T11:50:19.858Z,1996
2016-05-16T11:51:19.892Z,2416
2016-05-16T11:52:19.738Z,1872
2016-05-16T11:53:19.912Z,1788
2016-05-16T11:54:19.790Z,1460
2016-05-16T11:55:19.981Z,1084
2016-05-16T11:56:19.999Z,1084
2016-05-16T11:57:20.017Z,1312
2016-05-16T11:58:20.036Z,1844
2016-05-16T11:59:19.913Z,2492
2016-05-16T12:00:20.089Z,2968
2016-05-16T12:01:19.950Z,2768
2016-05-16T12:02:20.140Z,3372
2016-05-16T12:03:20.159Z,3368
2016-05-16T12:04:20.192Z,2812
2016-05-16T12:05:20.055Z,1516
2016-05-16T12:06:20.307Z,1324
2016-05-16T12:07:20.263Z,1596
2016-05-16T12:08:20.141Z,2108
2016-05-16T12:09:20.175Z,3476
2016-05-16T12:10:20.349Z,5400
2016-05-16T12:11:20.368Z,4812
2016-05-16T12:12:20.246Z,4112
2016-05-16T12:13:20.248Z,3428
2016-05-16T12:14:20.438Z,3704
2016-05-16T12:15:20.457Z,3428
2016-05-16T12:16:20.507Z,3644
2016-05-16T12:17:20.509Z,4980
2016-05-16T12:18:20.371Z,4400
2016-05-16T12:19:20.560Z,2416
2016-05-16T12:20:20.595Z,4048
2016-05-16T12:21:20.597Z,4864
2016-05-16T12:22:20.631Z,4900
2016-05-16T12:23:20.651Z,4776
2016-05-16T12:24:20.668Z,3988
2016-05-16T12:25:20.546Z,3644
2016-05-16T12:26:20.736Z,3356
2016-05-16T12:27:20.770Z,3360
2016-05-16T12:28:20.804Z,3220
2016-05-16T12:29:20.650Z,3448
2016-05-16T12:30:20.840Z,3732
2016-05-16T12:31:20.718Z,4048
2016-05-16T12:32:20.753Z,4100
2016-05-16T12:33:20.786Z,4396
2016-05-16T12:34:20.945Z,2744
2016-05-16T12:35:20.978Z,3380
2016-05-16T12:36:20.981Z,3764
2016-05-16T12:37:20.999Z,3668
2016-05-16T12:38:21.050Z,3264
2016-05-16T12:39:21.053Z,3420
2016-05-16T12:40:20.930Z,1564
2016-05-16T12:41:21.120Z,1364
2016-05-16T12:42:20.982Z,1780
2016-05-16T12:43:21.157Z,3040
2016-05-16T12:44:21.190Z,3056
2016-05-16T12:45:21.068Z,3288
2016-05-16T12:46:21.258Z,3788
2016-05-16T12:47:21.261Z,2036
2016-05-16T12:48:21.279Z,4136
2016-05-16T12:49:21.313Z,3608
2016-05-16T12:50:21.348Z,3648
2016-05-16T12:51:21.365Z,4176
2016-05-16T12:52:21.400Z,2152
2016-05-16T12:53:21.417Z,2464
2016-05-16T12:54:21.437Z,5060
2016-05-16T12:55:21.315Z,4744
2016-05-16T12:56:21.489Z,3864
2016-05-16T12:57:21.350Z,3188
2016-05-16T12:58:21.540Z,3124
2016-05-16T12:59:21.559Z,3100
2016-05-16T13:00:21.609Z,3204
2016-05-16T13:01:21.456Z,3272
2016-05-16T13:02:21.630Z,3416
2016-05-16T13:03:21.679Z,3688
2016-05-16T13:04:21.385Z,4456
2016-05-16T13:05:21.747Z,4688
2016-05-16T13:06:21.875Z,4188
2016-05-16T13:07:21.612Z,3988
2016-05-16T13:08:21.817Z,4288
2016-05-16T13:09:21.820Z,2400
2016-05-16T13:10:21.839Z,2856
2016-05-16T13:11:21.732Z,3080
2016-05-16T13:12:21.922Z,3140
2016-05-16T13:13:21.940Z,3140
2016-05-16T13:14:21.958Z,3132
2016-05-16T13:15:21.836Z,3448
2016-05-16T13:16:21.871Z,3788
2016-05-16T13:17:22.061Z,3764
2016-05-16T13:18:22.094Z,5760
2016-05-16T13:19:21.957Z,3632
2016-05-16T13:20:22.240Z,3416
2016-05-16T13:21:22.509Z,4932
2016-05-16T13:22:22.027Z,3008
2016-05-16T13:23:22.202Z,2196
2016-05-16T13:24:22.235Z,4560
2016-05-16T13:25:22.254Z,4984
2016-05-16T13:26:22.288Z,5312
2016-05-16T13:27:22.306Z,5456
2016-05-16T13:28:22.340Z,5416
2016-05-16T13:29:22.373Z,5152
2016-05-16T13:30:22.409Z,4824
2016-05-16T13:31:22.411Z,4520
2016-05-16T13:32:22.461Z,3416
2016-05-16T13:33:22.494Z,4200
2016-05-16T13:34:22.497Z,3368
2016-05-16T13:35:22.531Z,3404
2016-05-16T13:36:22.580Z,4824
2016-05-16T13:37:22.599Z,5884
2016-05-16T13:38:22.305Z,6060
2016-05-16T13:39:22.636Z,5716
2016-05-16T13:40:22.669Z,5304
2016-05-16T13:41:22.703Z,3104
2016-05-16T13:42:22.722Z,3620
2016-05-16T13:43:22.600Z,3584
2016-05-16T13:44:22.774Z,3436
2016-05-16T13:45:22.808Z,3632
2016-05-16T13:46:22.842Z,3320
2016-05-16T13:47:22.876Z,2900
2016-05-16T13:48:22.893Z,2832